sensor_id;sensor_type;location;lat;lon;timestamp;temperature;humidity
14771;DHT22;7477;45.222;5.688;2023-07-16T00:01:43;24.90;91.90
14771;DHT22;7477;45.222;5.688;2023-07-16T00:05:02;24.90;91.90
14771;DHT22;7477;45.222;5.688;2023-07-16T00:08:22;25.40;91.20
14771;DHT22;7477;45.222;5.688;2023-07-16T00:11:42;25.70;90.90
14771;DHT22;7477;45.222;5.688;2023-07-16T00:15:01;25.50;91.90
14771;DHT22;7477;45.222;5.688;2023-07-16T00:18:20;25.60;91.20
14771;DHT22;7477;45.222;5.688;2023-07-16T00:21:39;25.50;90.90
14771;DHT22;7477;45.222;5.688;2023-07-16T00:24:58;25.40;90.80
14771;DHT22;7477;45.222;5.688;2023-07-16T00:28:17;25.60;91.30
14771;DHT22;7477;45.222;5.688;2023-07-16T00:31:36;25.40;90.70
14771;DHT22;7477;45.222;5.688;2023-07-16T00:34:56;25.70;90.50
14771;DHT22;7477;45.222;5.688;2023-07-16T00:38:17;25.80;91.20
14771;DHT22;7477;45.222;5.688;2023-07-16T00:41:37;26.00;90.70
14771;DHT22;7477;45.222;5.688;2023-07-16T00:44:56;25.80;89.70
14771;DHT22;7477;45.222;5.688;2023-07-16T00:48:15;25.70;90.70
14771;DHT22;7477;45.222;5.688;2023-07-16T00:51:35;25.60;90.00
14771;DHT22;7477;45.222;5.688;2023-07-16T00:54:54;25.20;90.60
14771;DHT22;7477;45.222;5.688;2023-07-16T00:58:13;25.10;89.80
14771;DHT22;7477;45.222;5.688;2023-07-16T01:01:32;25.20;90.00
14771;DHT22;7477;45.222;5.688;2023-07-16T01:04:52;25.00;90.30
14771;DHT22;7477;45.222;5.688;2023-07-16T01:08:11;25.20;90.40
14771;DHT22;7477;45.222;5.688;2023-07-16T01:11:33;25.20;90.10
14771;DHT22;7477;45.222;5.688;2023-07-16T01:14:54;25.10;89.80
14771;DHT22;7477;45.222;5.688;2023-07-16T01:18:15;24.90;90.40
14771;DHT22;7477;45.222;5.688;2023-07-16T01:25:35;25.10;90.50
14771;DHT22;7477;45.222;5.688;2023-07-16T01:29:27;24.90;91.00
14771;DHT22;7477;45.222;5.688;2023-07-16T01:32:48;24.90;90.20
14771;DHT22;7477;45.222;5.688;2023-07-16T01:36:08;24.80;90.60
14771;DHT22;7477;45.222;5.688;2023-07-16T01:39:30;25.10;91.00
14771;DHT22;7477;45.222;5.688;2023-07-16T01:42:49;25.10;90.50
14771;DHT22;7477;45.222;5.688;2023-07-16T01:46:08;24.80;90.10
14771;DHT22;7477;45.222;5.688;2023-07-16T01:49:27;24.70;90.40
14771;DHT22;7477;45.222;5.688;2023-07-16T01:52:47;24.90;90.10
14771;DHT22;7477;45.222;5.688;2023-07-16T01:56:06;24.70;89.50
14771;DHT22;7477;45.222;5.688;2023-07-16T01:59:25;25.20;90.50
14771;DHT22;7477;45.222;5.688;2023-07-16T02:02:44;25.30;89.00
14771;DHT22;7477;45.222;5.688;2023-07-16T02:06:03;25.20;89.30
14771;DHT22;7477;45.222;5.688;2023-07-16T02:09:23;25.40;90.20
14771;DHT22;7477;45.222;5.688;2023-07-16T02:12:42;25.40;87.30
14771;DHT22;7477;45.222;5.688;2023-07-16T02:16:02;25.60;88.50
14771;DHT22;7477;45.222;5.688;2023-07-16T02:19:21;25.40;88.30
14771;DHT22;7477;45.222;5.688;2023-07-16T02:22:41;25.30;84.60
14771;DHT22;7477;45.222;5.688;2023-07-16T02:26:00;24.80;84.50
14771;DHT22;7477;45.222;5.688;2023-07-16T02:29:19;24.70;86.00
14771;DHT22;7477;45.222;5.688;2023-07-16T02:32:39;24.80;84.80
14771;DHT22;7477;45.222;5.688;2023-07-16T02:35:58;24.80;87.30
14771;DHT22;7477;45.222;5.688;2023-07-16T02:39:17;24.70;83.50
14771;DHT22;7477;45.222;5.688;2023-07-16T02:42:36;24.80;86.00
14771;DHT22;7477;45.222;5.688;2023-07-16T02:45:56;24.50;85.90
14771;DHT22;7477;45.222;5.688;2023-07-16T02:49:15;24.60;83.50
14771;DHT22;7477;45.222;5.688;2023-07-16T02:52:34;24.40;84.10
14771;DHT22;7477;45.222;5.688;2023-07-16T02:55:53;24.10;85.30
14771;DHT22;7477;45.222;5.688;2023-07-16T02:59:12;24.50;86.60
14771;DHT22;7477;45.222;5.688;2023-07-16T03:02:31;24.60;84.40
14771;DHT22;7477;45.222;5.688;2023-07-16T03:05:50;24.40;83.90
14771;DHT22;7477;45.222;5.688;2023-07-16T03:09:09;24.20;84.40
14771;DHT22;7477;45.222;5.688;2023-07-16T03:12:28;23.90;85.20
14771;DHT22;7477;45.222;5.688;2023-07-16T03:15:47;23.70;85.70
14771;DHT22;7477;45.222;5.688;2023-07-16T03:19:07;23.30;85.70
14771;DHT22;7477;45.222;5.688;2023-07-16T03:22:26;23.30;85.80
14771;DHT22;7477;45.222;5.688;2023-07-16T03:25:45;23.30;86.00
14771;DHT22;7477;45.222;5.688;2023-07-16T03:29:04;23.60;86.60
14771;DHT22;7477;45.222;5.688;2023-07-16T03:32:23;24.00;86.40
14771;DHT22;7477;45.222;5.688;2023-07-16T03:35:44;23.50;85.20
14771;DHT22;7477;45.222;5.688;2023-07-16T03:39:03;23.50;85.40
14771;DHT22;7477;45.222;5.688;2023-07-16T03:42:22;23.30;86.50
14771;DHT22;7477;45.222;5.688;2023-07-16T03:45:42;23.50;87.20
14771;DHT22;7477;45.222;5.688;2023-07-16T03:49:01;23.10;87.40
14771;DHT22;7477;45.222;5.688;2023-07-16T03:52:21;23.20;87.20
14771;DHT22;7477;45.222;5.688;2023-07-16T03:55:40;23.30;87.70
14771;DHT22;7477;45.222;5.688;2023-07-16T03:58:59;23.20;88.70
14771;DHT22;7477;45.222;5.688;2023-07-16T04:02:18;23.40;87.10
14771;DHT22;7477;45.222;5.688;2023-07-16T04:05:38;23.10;87.70
14771;DHT22;7477;45.222;5.688;2023-07-16T04:08:57;23.10;88.20
14771;DHT22;7477;45.222;5.688;2023-07-16T04:12:16;23.00;88.30
14771;DHT22;7477;45.222;5.688;2023-07-16T04:15:35;22.90;88.50
14771;DHT22;7477;45.222;5.688;2023-07-16T04:18:54;22.90;88.50
14771;DHT22;7477;45.222;5.688;2023-07-16T04:22:13;23.00;88.80
14771;DHT22;7477;45.222;5.688;2023-07-16T04:25:32;23.00;89.60
14771;DHT22;7477;45.222;5.688;2023-07-16T04:28:51;22.80;89.50
14771;DHT22;7477;45.222;5.688;2023-07-16T04:32:11;22.70;90.00
14771;DHT22;7477;45.222;5.688;2023-07-16T04:35:30;22.80;90.10
14771;DHT22;7477;45.222;5.688;2023-07-16T04:38:49;22.70;90.20
14771;DHT22;7477;45.222;5.688;2023-07-16T04:42:08;22.70;89.80
14771;DHT22;7477;45.222;5.688;2023-07-16T04:45:27;23.20;88.70
14771;DHT22;7477;45.222;5.688;2023-07-16T04:48:46;22.90;89.00
14771;DHT22;7477;45.222;5.688;2023-07-16T04:52:06;23.10;89.50
14771;DHT22;7477;45.222;5.688;2023-07-16T04:55:25;23.00;89.90
14771;DHT22;7477;45.222;5.688;2023-07-16T04:58:44;22.90;90.10
14771;DHT22;7477;45.222;5.688;2023-07-16T05:02:05;23.00;90.50
14771;DHT22;7477;45.222;5.688;2023-07-16T05:05:24;22.90;90.60
14771;DHT22;7477;45.222;5.688;2023-07-16T05:08:44;23.10;90.40
14771;DHT22;7477;45.222;5.688;2023-07-16T05:12:03;23.00;90.50
14771;DHT22;7477;45.222;5.688;2023-07-16T05:15:23;22.80;90.60
14771;DHT22;7477;45.222;5.688;2023-07-16T05:18:42;22.70;90.80
14771;DHT22;7477;45.222;5.688;2023-07-16T05:22:01;22.70;90.90
14771;DHT22;7477;45.222;5.688;2023-07-16T05:25:20;22.60;91.10
14771;DHT22;7477;45.222;5.688;2023-07-16T05:28:39;22.60;91.20
14771;DHT22;7477;45.222;5.688;2023-07-16T05:31:58;22.60;91.30
14771;DHT22;7477;45.222;5.688;2023-07-16T05:35:17;22.90;91.00
14771;DHT22;7477;45.222;5.688;2023-07-16T05:38:36;23.00;90.90
14771;DHT22;7477;45.222;5.688;2023-07-16T05:41:55;23.00;90.70
14771;DHT22;7477;45.222;5.688;2023-07-16T05:45:14;23.00;90.70
14771;DHT22;7477;45.222;5.688;2023-07-16T05:48:33;22.90;90.80
14771;DHT22;7477;45.222;5.688;2023-07-16T05:51:52;22.80;90.80
14771;DHT22;7477;45.222;5.688;2023-07-16T05:55:13;22.80;90.90
14771;DHT22;7477;45.222;5.688;2023-07-16T05:58:33;22.90;90.80
14771;DHT22;7477;45.222;5.688;2023-07-16T06:01:52;22.80;91.10
14771;DHT22;7477;45.222;5.688;2023-07-16T06:05:11;22.70;91.00
14771;DHT22;7477;45.222;5.688;2023-07-16T06:08:30;22.70;91.30
14771;DHT22;7477;45.222;5.688;2023-07-16T06:11:49;22.80;91.60
14771;DHT22;7477;45.222;5.688;2023-07-16T06:15:09;22.70;92.00
14771;DHT22;7477;45.222;5.688;2023-07-16T06:18:28;22.70;91.50
14771;DHT22;7477;45.222;5.688;2023-07-16T06:21:47;22.70;91.60
14771;DHT22;7477;45.222;5.688;2023-07-16T06:25:07;22.80;91.80
14771;DHT22;7477;45.222;5.688;2023-07-16T06:28:26;22.70;91.70
14771;DHT22;7477;45.222;5.688;2023-07-16T06:31:56;22.70;92.00
14771;DHT22;7477;45.222;5.688;2023-07-16T06:35:16;22.80;91.80
14771;DHT22;7477;45.222;5.688;2023-07-16T06:38:35;22.70;91.70
14771;DHT22;7477;45.222;5.688;2023-07-16T06:41:54;22.70;92.00
14771;DHT22;7477;45.222;5.688;2023-07-16T06:45:14;22.70;91.40
14771;DHT22;7477;45.222;5.688;2023-07-16T06:48:33;22.80;91.30
14771;DHT22;7477;45.222;5.688;2023-07-16T06:51:53;22.70;91.30
14771;DHT22;7477;45.222;5.688;2023-07-16T06:55:12;22.80;91.50
14771;DHT22;7477;45.222;5.688;2023-07-16T06:58:32;22.90;91.90
14771;DHT22;7477;45.222;5.688;2023-07-16T07:01:55;23.00;92.00
14771;DHT22;7477;45.222;5.688;2023-07-16T07:05:14;23.00;93.10
14771;DHT22;7477;45.222;5.688;2023-07-16T07:08:33;23.10;92.90
14771;DHT22;7477;45.222;5.688;2023-07-16T07:11:52;23.30;93.20
14771;DHT22;7477;45.222;5.688;2023-07-16T07:15:11;23.30;92.50
14771;DHT22;7477;45.222;5.688;2023-07-16T07:18:30;23.30;92.10
14771;DHT22;7477;45.222;5.688;2023-07-16T07:21:50;23.20;91.80
14771;DHT22;7477;45.222;5.688;2023-07-16T07:25:09;23.20;91.70
14771;DHT22;7477;45.222;5.688;2023-07-16T07:28:28;23.30;91.80
14771;DHT22;7477;45.222;5.688;2023-07-16T07:31:48;23.30;92.10
14771;DHT22;7477;45.222;5.688;2023-07-16T07:35:07;23.40;92.10
14771;DHT22;7477;45.222;5.688;2023-07-16T07:38:26;23.40;91.80
14771;DHT22;7477;45.222;5.688;2023-07-16T07:41:45;23.40;92.00
14771;DHT22;7477;45.222;5.688;2023-07-16T07:45:05;23.40;92.90
14771;DHT22;7477;45.222;5.688;2023-07-16T07:48:24;23.40;92.20
14771;DHT22;7477;45.222;5.688;2023-07-16T07:51:44;23.40;92.50
14771;DHT22;7477;45.222;5.688;2023-07-16T07:55:03;23.40;93.00
14771;DHT22;7477;45.222;5.688;2023-07-16T07:58:23;23.40;92.60
14771;DHT22;7477;45.222;5.688;2023-07-16T08:01:42;23.50;92.70
14771;DHT22;7477;45.222;5.688;2023-07-16T08:05:01;23.40;92.30
14771;DHT22;7477;45.222;5.688;2023-07-16T08:08:21;23.50;92.20
14771;DHT22;7477;45.222;5.688;2023-07-16T08:11:40;23.40;92.20
14771;DHT22;7477;45.222;5.688;2023-07-16T08:14:59;23.30;92.10
14771;DHT22;7477;45.222;5.688;2023-07-16T08:18:18;23.40;92.80
14771;DHT22;7477;45.222;5.688;2023-07-16T08:21:37;23.40;92.90
14771;DHT22;7477;45.222;5.688;2023-07-16T08:24:56;23.60;92.70
14771;DHT22;7477;45.222;5.688;2023-07-16T08:28:16;23.80;92.30
14771;DHT22;7477;45.222;5.688;2023-07-16T08:31:35;23.90;92.30
14771;DHT22;7477;45.222;5.688;2023-07-16T08:34:54;24.10;92.00
14771;DHT22;7477;45.222;5.688;2023-07-16T08:38:13;24.40;92.70
14771;DHT22;7477;45.222;5.688;2023-07-16T08:41:32;24.40;92.00
14771;DHT22;7477;45.222;5.688;2023-07-16T08:44:52;24.30;92.30
14771;DHT22;7477;45.222;5.688;2023-07-16T08:48:12;24.60;92.20
14771;DHT22;7477;45.222;5.688;2023-07-16T08:51:32;24.60;92.10
14771;DHT22;7477;45.222;5.688;2023-07-16T08:54:53;24.70;92.10
14771;DHT22;7477;45.222;5.688;2023-07-16T08:58:14;24.70;92.00
14771;DHT22;7477;45.222;5.688;2023-07-16T09:01:33;24.80;92.30
14771;DHT22;7477;45.222;5.688;2023-07-16T09:04:52;24.80;91.90
14771;DHT22;7477;45.222;5.688;2023-07-16T09:08:12;24.70;92.10
14771;DHT22;7477;45.222;5.688;2023-07-16T09:11:33;24.80;92.10
14771;DHT22;7477;45.222;5.688;2023-07-16T09:14:53;24.80;92.00
14771;DHT22;7477;45.222;5.688;2023-07-16T09:18:12;24.80;92.00
14771;DHT22;7477;45.222;5.688;2023-07-16T09:21:31;24.70;92.00
14771;DHT22;7477;45.222;5.688;2023-07-16T09:24:53;24.80;91.90
14771;DHT22;7477;45.222;5.688;2023-07-16T09:28:12;24.70;92.10
14771;DHT22;7477;45.222;5.688;2023-07-16T09:31:31;24.70;92.50
14771;DHT22;7477;45.222;5.688;2023-07-16T09:34:50;24.60;92.20
14771;DHT22;7477;45.222;5.688;2023-07-16T09:41:30;24.40;92.30
14771;DHT22;7477;45.222;5.688;2023-07-16T09:44:51;24.30;92.50
14771;DHT22;7477;45.222;5.688;2023-07-16T09:48:14;24.30;92.60
14771;DHT22;7477;45.222;5.688;2023-07-16T09:51:38;24.20;92.30
14771;DHT22;7477;45.222;5.688;2023-07-16T09:55:01;24.30;92.80
14771;DHT22;7477;45.222;5.688;2023-07-16T09:58:21;24.40;92.70
14771;DHT22;7477;45.222;5.688;2023-07-16T10:01:42;24.50;92.50
14771;DHT22;7477;45.222;5.688;2023-07-16T10:05:24;24.50;92.30
14771;DHT22;7477;45.222;5.688;2023-07-16T10:08:50;24.40;92.20
14771;DHT22;7477;45.222;5.688;2023-07-16T10:15:29;24.50;92.00
14771;DHT22;7477;45.222;5.688;2023-07-16T10:18:52;24.50;91.90
14771;DHT22;7477;45.222;5.688;2023-07-16T10:22:15;24.50;92.10
14771;DHT22;7477;45.222;5.688;2023-07-16T10:25:34;24.50;92.30
14771;DHT22;7477;45.222;5.688;2023-07-16T10:28:53;24.60;92.10
14771;DHT22;7477;45.222;5.688;2023-07-16T10:32:12;24.60;92.10
14771;DHT22;7477;45.222;5.688;2023-07-16T10:35:34;24.70;91.70
14771;DHT22;7477;45.222;5.688;2023-07-16T10:38:54;24.60;91.90
14771;DHT22;7477;45.222;5.688;2023-07-16T10:42:15;24.60;91.90
14771;DHT22;7477;45.222;5.688;2023-07-16T10:45:34;24.60;91.90
14771;DHT22;7477;45.222;5.688;2023-07-16T10:48:53;24.80;91.80
14771;DHT22;7477;45.222;5.688;2023-07-16T10:52:12;24.90;91.80
14771;DHT22;7477;45.222;5.688;2023-07-16T10:55:32;25.00;91.40
14771;DHT22;7477;45.222;5.688;2023-07-16T10:58:56;25.00;91.70
14771;DHT22;7477;45.222;5.688;2023-07-16T11:02:17;25.10;91.10
14771;DHT22;7477;45.222;5.688;2023-07-16T11:05:36;24.90;91.30
14771;DHT22;7477;45.222;5.688;2023-07-16T11:09:08;24.90;91.60
14771;DHT22;7477;45.222;5.688;2023-07-16T11:12:28;25.00;91.70
14771;DHT22;7477;45.222;5.688;2023-07-16T11:15:48;25.10;91.40
14771;DHT22;7477;45.222;5.688;2023-07-16T11:19:07;25.10;91.60
14771;DHT22;7477;45.222;5.688;2023-07-16T11:22:27;25.10;91.10
14771;DHT22;7477;45.222;5.688;2023-07-16T11:25:48;25.10;91.30
14771;DHT22;7477;45.222;5.688;2023-07-16T11:29:14;25.20;91.90
14771;DHT22;7477;45.222;5.688;2023-07-16T11:32:42;25.20;90.80
14771;DHT22;7477;45.222;5.688;2023-07-16T11:36:01;25.20;91.00
14771;DHT22;7477;45.222;5.688;2023-07-16T11:39:20;25.30;91.10
14771;DHT22;7477;45.222;5.688;2023-07-16T11:42:40;25.30;90.70
14771;DHT22;7477;45.222;5.688;2023-07-16T11:46:03;25.30;90.70
14771;DHT22;7477;45.222;5.688;2023-07-16T11:49:22;25.40;90.90
14771;DHT22;7477;45.222;5.688;2023-07-16T11:52:41;25.40;90.60
14771;DHT22;7477;45.222;5.688;2023-07-16T11:56:01;25.40;90.40
14771;DHT22;7477;45.222;5.688;2023-07-16T11:59:21;25.40;90.60
14771;DHT22;7477;45.222;5.688;2023-07-16T12:02:40;25.50;90.90
14771;DHT22;7477;45.222;5.688;2023-07-16T12:05:59;25.50;90.70
14771;DHT22;7477;45.222;5.688;2023-07-16T12:09:19;25.60;91.10
14771;DHT22;7477;45.222;5.688;2023-07-16T12:12:38;25.60;90.70
14771;DHT22;7477;45.222;5.688;2023-07-16T12:15:57;25.70;90.40
14771;DHT22;7477;45.222;5.688;2023-07-16T12:19:16;25.70;90.50
14771;DHT22;7477;45.222;5.688;2023-07-16T12:22:35;25.80;90.40
14771;DHT22;7477;45.222;5.688;2023-07-16T12:25:55;25.80;91.00
14771;DHT22;7477;45.222;5.688;2023-07-16T12:29:14;25.80;90.50
14771;DHT22;7477;45.222;5.688;2023-07-16T12:32:34;25.80;90.00
14771;DHT22;7477;45.222;5.688;2023-07-16T12:35:53;25.80;90.10
14771;DHT22;7477;45.222;5.688;2023-07-16T12:39:12;25.90;90.10
14771;DHT22;7477;45.222;5.688;2023-07-16T12:42:31;25.90;90.00
14771;DHT22;7477;45.222;5.688;2023-07-16T12:45:50;25.90;89.10
14771;DHT22;7477;45.222;5.688;2023-07-16T12:49:09;26.00;90.30
14771;DHT22;7477;45.222;5.688;2023-07-16T12:52:29;26.10;89.40
14771;DHT22;7477;45.222;5.688;2023-07-16T12:55:48;26.10;89.40
14771;DHT22;7477;45.222;5.688;2023-07-16T12:59:07;26.10;88.30
14771;DHT22;7477;45.222;5.688;2023-07-16T13:02:26;26.10;89.40
14771;DHT22;7477;45.222;5.688;2023-07-16T13:05:45;26.20;88.40
14771;DHT22;7477;45.222;5.688;2023-07-16T13:09:06;26.30;88.00
14771;DHT22;7477;45.222;5.688;2023-07-16T13:12:25;26.30;87.90
14771;DHT22;7477;45.222;5.688;2023-07-16T13:15:45;26.40;87.90
14771;DHT22;7477;45.222;5.688;2023-07-16T13:19:04;26.30;88.10
14771;DHT22;7477;45.222;5.688;2023-07-16T13:22:24;26.40;87.00
14771;DHT22;7477;45.222;5.688;2023-07-16T13:25:43;26.30;87.30
14771;DHT22;7477;45.222;5.688;2023-07-16T13:29:02;26.40;87.00
14771;DHT22;7477;45.222;5.688;2023-07-16T13:32:21;26.40;87.40
14771;DHT22;7477;45.222;5.688;2023-07-16T13:35:40;26.40;87.80
14771;DHT22;7477;45.222;5.688;2023-07-16T13:38:59;26.50;87.10
14771;DHT22;7477;45.222;5.688;2023-07-16T13:42:18;26.60;86.60
14771;DHT22;7477;45.222;5.688;2023-07-16T13:45:39;26.50;86.40
14771;DHT22;7477;45.222;5.688;2023-07-16T13:48:58;26.60;87.10
14771;DHT22;7477;45.222;5.688;2023-07-16T13:52:19;26.70;86.60
14771;DHT22;7477;45.222;5.688;2023-07-16T13:55:38;26.90;84.90
14771;DHT22;7477;45.222;5.688;2023-07-16T13:58:57;27.00;85.20
14771;DHT22;7477;45.222;5.688;2023-07-16T14:02:16;27.10;84.90
14771;DHT22;7477;45.222;5.688;2023-07-16T14:05:35;27.30;83.70
14771;DHT22;7477;45.222;5.688;2023-07-16T14:08:58;27.30;84.30
14771;DHT22;7477;45.222;5.688;2023-07-16T14:12:18;27.50;83.30
14771;DHT22;7477;45.222;5.688;2023-07-16T14:15:37;27.50;82.90
14771;DHT22;7477;45.222;5.688;2023-07-16T14:18:56;27.60;81.70
14771;DHT22;7477;45.222;5.688;2023-07-16T14:22:16;27.70;82.10
14771;DHT22;7477;45.222;5.688;2023-07-16T14:25:35;27.60;82.20
14771;DHT22;7477;45.222;5.688;2023-07-16T14:28:54;27.80;82.60
14771;DHT22;7477;45.222;5.688;2023-07-16T14:32:13;27.90;82.60
14771;DHT22;7477;45.222;5.688;2023-07-16T14:35:33;28.10;80.90
14771;DHT22;7477;45.222;5.688;2023-07-16T14:38:53;28.20;81.40
14771;DHT22;7477;45.222;5.688;2023-07-16T14:42:12;28.10;80.50
14771;DHT22;7477;45.222;5.688;2023-07-16T14:45:31;28.30;80.50
14771;DHT22;7477;45.222;5.688;2023-07-16T14:48:51;28.30;80.50
14771;DHT22;7477;45.222;5.688;2023-07-16T14:52:14;28.50;81.00
14771;DHT22;7477;45.222;5.688;2023-07-16T14:55:33;28.50;79.80
14771;DHT22;7477;45.222;5.688;2023-07-16T14:58:53;28.30;81.20
14771;DHT22;7477;45.222;5.688;2023-07-16T15:02:12;28.60;80.20
14771;DHT22;7477;45.222;5.688;2023-07-16T15:05:31;28.50;80.30
14771;DHT22;7477;45.222;5.688;2023-07-16T15:08:51;28.80;79.70
14771;DHT22;7477;45.222;5.688;2023-07-16T15:12:10;28.80;79.40
14771;DHT22;7477;45.222;5.688;2023-07-16T15:15:29;28.70;78.80
14771;DHT22;7477;45.222;5.688;2023-07-16T15:18:48;28.70;80.20
14771;DHT22;7477;45.222;5.688;2023-07-16T15:22:07;29.10;78.80
14771;DHT22;7477;45.222;5.688;2023-07-16T15:25:26;29.10;78.60
14771;DHT22;7477;45.222;5.688;2023-07-16T15:28:45;29.30;78.60
14771;DHT22;7477;45.222;5.688;2023-07-16T15:32:05;29.40;78.40
14771;DHT22;7477;45.222;5.688;2023-07-16T15:35:25;29.30;78.20
14771;DHT22;7477;45.222;5.688;2023-07-16T15:38:44;29.50;77.60
14771;DHT22;7477;45.222;5.688;2023-07-16T15:42:04;29.40;78.40
14771;DHT22;7477;45.222;5.688;2023-07-16T15:45:23;29.50;78.60
14771;DHT22;7477;45.222;5.688;2023-07-16T15:48:42;29.60;77.80
14771;DHT22;7477;45.222;5.688;2023-07-16T15:52:03;29.60;77.20
14771;DHT22;7477;45.222;5.688;2023-07-16T15:55:22;29.70;78.30
14771;DHT22;7477;45.222;5.688;2023-07-16T15:58:42;29.60;77.90
14771;DHT22;7477;45.222;5.688;2023-07-16T16:02:02;29.80;77.10
14771;DHT22;7477;45.222;5.688;2023-07-16T16:05:23;29.80;77.20
14771;DHT22;7477;45.222;5.688;2023-07-16T16:08:42;29.70;77.40
14771;DHT22;7477;45.222;5.688;2023-07-16T16:12:02;29.90;76.80
14771;DHT22;7477;45.222;5.688;2023-07-16T16:15:22;29.90;76.80
14771;DHT22;7477;45.222;5.688;2023-07-16T16:18:42;30.10;77.10
14771;DHT22;7477;45.222;5.688;2023-07-16T16:22:01;30.00;76.40
14771;DHT22;7477;45.222;5.688;2023-07-16T16:25:20;29.90;77.10
14771;DHT22;7477;45.222;5.688;2023-07-16T16:28:39;29.80;76.80
14771;DHT22;7477;45.222;5.688;2023-07-16T16:31:59;29.30;76.90
14771;DHT22;7477;45.222;5.688;2023-07-16T16:35:18;28.90;78.10
14771;DHT22;7477;45.222;5.688;2023-07-16T16:38:37;28.90;78.90
14771;DHT22;7477;45.222;5.688;2023-07-16T16:41:57;28.70;78.80
14771;DHT22;7477;45.222;5.688;2023-07-16T16:45:16;28.70;79.00
14771;DHT22;7477;45.222;5.688;2023-07-16T16:48:36;28.60;79.20
14771;DHT22;7477;45.222;5.688;2023-07-16T16:51:57;28.50;79.10
14771;DHT22;7477;45.222;5.688;2023-07-16T16:55:16;28.40;79.40
14771;DHT22;7477;45.222;5.688;2023-07-16T16:58:35;28.30;79.60
14771;DHT22;7477;45.222;5.688;2023-07-16T17:01:54;28.30;80.10
14771;DHT22;7477;45.222;5.688;2023-07-16T17:05:14;28.30;80.70
14771;DHT22;7477;45.222;5.688;2023-07-16T17:08:33;28.40;80.20
14771;DHT22;7477;45.222;5.688;2023-07-16T17:11:52;28.30;80.40
14771;DHT22;7477;45.222;5.688;2023-07-16T17:15:12;28.30;80.10
14771;DHT22;7477;45.222;5.688;2023-07-16T17:18:31;28.30;80.50
14771;DHT22;7477;45.222;5.688;2023-07-16T17:21:51;28.20;80.50
14771;DHT22;7477;45.222;5.688;2023-07-16T17:25:10;28.20;80.30
14771;DHT22;7477;45.222;5.688;2023-07-16T17:28:30;28.20;80.60
14771;DHT22;7477;45.222;5.688;2023-07-16T17:31:49;28.20;81.40
14771;DHT22;7477;45.222;5.688;2023-07-16T17:35:08;28.20;81.60
14771;DHT22;7477;45.222;5.688;2023-07-16T17:38:27;28.20;81.10
14771;DHT22;7477;45.222;5.688;2023-07-16T17:41:47;28.10;81.40
14771;DHT22;7477;45.222;5.688;2023-07-16T17:45:07;28.10;81.40
14771;DHT22;7477;45.222;5.688;2023-07-16T17:48:26;28.00;82.00
14771;DHT22;7477;45.222;5.688;2023-07-16T17:51:45;28.00;82.40
14771;DHT22;7477;45.222;5.688;2023-07-16T17:55:05;27.80;81.60
14771;DHT22;7477;45.222;5.688;2023-07-16T17:58:25;27.80;82.00
14771;DHT22;7477;45.222;5.688;2023-07-16T18:01:44;27.70;82.00
14771;DHT22;7477;45.222;5.688;2023-07-16T18:05:05;27.70;81.80
14771;DHT22;7477;45.222;5.688;2023-07-16T18:08:26;27.60;82.00
14771;DHT22;7477;45.222;5.688;2023-07-16T18:11:46;27.60;82.50
14771;DHT22;7477;45.222;5.688;2023-07-16T18:15:06;27.50;82.40
14771;DHT22;7477;45.222;5.688;2023-07-16T18:18:25;27.50;82.70
14771;DHT22;7477;45.222;5.688;2023-07-16T18:21:45;27.30;82.80
14771;DHT22;7477;45.222;5.688;2023-07-16T18:25:07;27.30;83.10
14771;DHT22;7477;45.222;5.688;2023-07-16T18:28:26;27.10;83.10
14771;DHT22;7477;45.222;5.688;2023-07-16T18:31:46;27.00;83.20
14771;DHT22;7477;45.222;5.688;2023-07-16T18:35:06;26.90;83.30
14771;DHT22;7477;45.222;5.688;2023-07-16T18:38:25;26.80;84.00
14771;DHT22;7477;45.222;5.688;2023-07-16T18:41:44;26.80;83.70
14771;DHT22;7477;45.222;5.688;2023-07-16T18:45:04;26.80;83.50
14771;DHT22;7477;45.222;5.688;2023-07-16T18:48:25;26.80;83.50
14771;DHT22;7477;45.222;5.688;2023-07-16T18:51:44;26.80;83.50
14771;DHT22;7477;45.222;5.688;2023-07-16T18:55:04;26.80;83.60
14771;DHT22;7477;45.222;5.688;2023-07-16T18:58:23;26.80;83.80
14771;DHT22;7477;45.222;5.688;2023-07-16T19:01:42;26.80;83.80
14771;DHT22;7477;45.222;5.688;2023-07-16T19:05:02;26.80;83.60
14771;DHT22;7477;45.222;5.688;2023-07-16T19:08:22;26.80;83.90
14771;DHT22;7477;45.222;5.688;2023-07-16T19:11:43;26.70;83.80
14771;DHT22;7477;45.222;5.688;2023-07-16T19:15:03;26.70;84.10
14771;DHT22;7477;45.222;5.688;2023-07-16T19:18:22;26.60;84.00
14771;DHT22;7477;45.222;5.688;2023-07-16T19:21:42;26.50;84.30
14771;DHT22;7477;45.222;5.688;2023-07-16T19:25:01;26.60;84.20
14771;DHT22;7477;45.222;5.688;2023-07-16T19:28:22;26.40;84.40
14771;DHT22;7477;45.222;5.688;2023-07-16T19:31:41;26.40;85.10
14771;DHT22;7477;45.222;5.688;2023-07-16T19:35:00;26.40;84.50
14771;DHT22;7477;45.222;5.688;2023-07-16T19:38:20;26.40;84.60
14771;DHT22;7477;45.222;5.688;2023-07-16T19:41:40;26.40;85.70
14771;DHT22;7477;45.222;5.688;2023-07-16T19:44:59;26.60;84.40
14771;DHT22;7477;45.222;5.688;2023-07-16T19:48:18;26.50;84.90
14771;DHT22;7477;45.222;5.688;2023-07-16T19:51:38;26.10;84.60
14771;DHT22;7477;45.222;5.688;2023-07-16T19:54:58;26.10;85.10
14771;DHT22;7477;45.222;5.688;2023-07-16T19:58:20;25.90;85.10
14771;DHT22;7477;45.222;5.688;2023-07-16T20:01:40;25.70;85.80
14771;DHT22;7477;45.222;5.688;2023-07-16T20:04:59;25.60;86.00
14771;DHT22;7477;45.222;5.688;2023-07-16T20:08:22;25.80;86.10
14771;DHT22;7477;45.222;5.688;2023-07-16T20:11:42;25.70;86.30
14771;DHT22;7477;45.222;5.688;2023-07-16T20:15:01;25.60;86.40
14771;DHT22;7477;45.222;5.688;2023-07-16T20:18:21;25.70;86.10
14771;DHT22;7477;45.222;5.688;2023-07-16T20:21:41;25.60;86.90
14771;DHT22;7477;45.222;5.688;2023-07-16T20:25:00;25.60;86.50
14771;DHT22;7477;45.222;5.688;2023-07-16T20:28:19;25.40;86.50
14771;DHT22;7477;45.222;5.688;2023-07-16T20:31:38;25.40;86.70
14771;DHT22;7477;45.222;5.688;2023-07-16T20:34:57;25.40;86.90
14771;DHT22;7477;45.222;5.688;2023-07-16T20:38:18;25.30;87.90
14771;DHT22;7477;45.222;5.688;2023-07-16T20:41:38;25.30;88.10
14771;DHT22;7477;45.222;5.688;2023-07-16T20:45:17;25.20;88.20
14771;DHT22;7477;45.222;5.688;2023-07-16T20:48:36;25.10;88.60
14771;DHT22;7477;45.222;5.688;2023-07-16T20:52:01;25.10;88.40
14771;DHT22;7477;45.222;5.688;2023-07-16T20:55:20;25.10;88.20
14771;DHT22;7477;45.222;5.688;2023-07-16T20:58:40;25.00;88.30
14771;DHT22;7477;45.222;5.688;2023-07-16T21:02:00;25.00;88.10
14771;DHT22;7477;45.222;5.688;2023-07-16T21:05:21;24.90;88.40
14771;DHT22;7477;45.222;5.688;2023-07-16T21:08:41;25.00;88.40
14771;DHT22;7477;45.222;5.688;2023-07-16T21:12:00;24.90;88.40
14771;DHT22;7477;45.222;5.688;2023-07-16T21:15:20;25.00;88.40
14771;DHT22;7477;45.222;5.688;2023-07-16T21:18:39;25.10;88.30
14771;DHT22;7477;45.222;5.688;2023-07-16T21:22:00;25.00;88.40
14771;DHT22;7477;45.222;5.688;2023-07-16T21:25:19;25.00;88.50
14771;DHT22;7477;45.222;5.688;2023-07-16T21:28:39;24.80;88.70
14771;DHT22;7477;45.222;5.688;2023-07-16T21:31:58;24.90;89.20